Aurora, NY

1:36 AM EDT on August 24, 2016 (GMT -0400)
Pumpkin Hill | | Change Station

Elev 643 ft 42.72 °N, 76.69 °W | Updated 12 minutes ago

Clear
Clear
64.0 °F
Feels Like 64.0 °F
N
4.2
Wind Variable Wind from South

Today
High -- | Low -- °F
--% Chance of Precip.
Yesterday
High -- | Low -- °F
Precip. -- in
Pressure 30.28 in
Visibility 10.0 miles
Clouds Clear
Dew Point 57 °F
Humidity 77%
Rainfall 0.00 in
Snow Depth Not available.
6:23 AM 7:53 PM
Waning Gibbous, 61% visible
METAR KITH 240456Z AUTO 07005KT 10SM CLR 15/13 A3029 RMK AO2 SLP254 T01500133 402610089
Pressure 30.28 in
Visibility 10.0 miles
Clouds Clear
Dew Point 57 °F
Humidity 77%
Rainfall 0.00 in
Snow Depth Not available.
6:23 AM 7:53 PM
Waning Gibbous, 61% visible
METAR KITH 240456Z AUTO 07005KT 10SM CLR 15/13 A3029 RMK AO2 SLP254 T01500133 402610089

10-Day Weather Forecast

Almanac

Astronomy

Aug. 24, 2016 Rise Set
Actual Time
Civil Twilight
Nautical Twilight
Astronomical Twilight
Moon
Length of Visible Light
Length of Day
Tomorrow will be .
, % of the Moon is Illuminated

Today's Extremes

State Highs State Lows

Community

WunderPhotos

Upload Photos

1,934,554 photos uploaded!

WunderBlog® & News

Nearby

Air Quality

  Air Quality AQ Index Pollutant
Not available.

Snow Depth

Station Depth Elevation

Earthquake Activity

City Distance Mag. Time & Date
Minimum magnitude displayed is 2.5.

Coastal Water Temperatures

Place Temperature

Stations

Nearby Weather Stations

Station Location Temp. Windchill Dew Point Humidity Wind Precip. Elev Updated Type
                   

Watches & Warnings

There are currently no watches in effect.